sensor_id;sensor_type;location;lat;lon;timestamp;temperature;humidity
22795;DHT22;11564;50.920;11.612;2023-06-10T00:01:58;14.50;99.90
22795;DHT22;11564;50.920;11.612;2023-06-10T00:04:26;14.40;99.90
22795;DHT22;11564;50.920;11.612;2023-06-10T00:06:52;14.40;99.90
22795;DHT22;11564;50.920;11.612;2023-06-10T00:09:19;14.30;99.90
22795;DHT22;11564;50.920;11.612;2023-06-10T00:11:46;14.30;99.90
22795;DHT22;11564;50.920;11.612;2023-06-10T00:14:13;14.20;99.90
22795;DHT22;11564;50.920;11.612;2023-06-10T00:16:39;14.20;99.90
22795;DHT22;11564;50.920;11.612;2023-06-10T00:19:04;14.10;99.90
22795;DHT22;11564;50.920;11.612;2023-06-10T00:21:34;14.10;99.90
22795;DHT22;11564;50.920;11.612;2023-06-10T00:24:04;14.10;99.90
22795;DHT22;11564;50.920;11.612;2023-06-10T00:26:31;14.10;99.90
22795;DHT22;11564;50.920;11.612;2023-06-10T00:28:56;14.00;99.90
22795;DHT22;11564;50.920;11.612;2023-06-10T00:31:22;14.00;99.90
22795;DHT22;11564;50.920;11.612;2023-06-10T00:33:48;14.00;99.90
22795;DHT22;11564;50.920;11.612;2023-06-10T00:36:13;13.90;99.90
22795;DHT22;11564;50.920;11.612;2023-06-10T00:38:39;13.90;99.90
22795;DHT22;11564;50.920;11.612;2023-06-10T00:41:06;13.80;99.90
22795;DHT22;11564;50.920;11.612;2023-06-10T00:43:32;13.70;99.90
22795;DHT22;11564;50.920;11.612;2023-06-10T00:45:57;13.70;99.90
22795;DHT22;11564;50.920;11.612;2023-06-10T00:48:23;13.70;99.90
22795;DHT22;11564;50.920;11.612;2023-06-10T00:50:50;13.60;99.90
22795;DHT22;11564;50.920;11.612;2023-06-10T00:53:16;13.60;99.90
22795;DHT22;11564;50.920;11.612;2023-06-10T00:55:43;13.60;99.90
22795;DHT22;11564;50.920;11.612;2023-06-10T00:58:08;13.60;99.90
22795;DHT22;11564;50.920;11.612;2023-06-10T01:00:34;13.50;99.90
22795;DHT22;11564;50.920;11.612;2023-06-10T01:03:00;13.50;99.90
22795;DHT22;11564;50.920;11.612;2023-06-10T01:05:26;13.50;99.90
22795;DHT22;11564;50.920;11.612;2023-06-10T01:08:18;13.40;99.90
22795;DHT22;11564;50.920;11.612;2023-06-10T01:10:53;13.50;99.90
22795;DHT22;11564;50.920;11.612;2023-06-10T01:13:22;13.40;99.90
22795;DHT22;11564;50.920;11.612;2023-06-10T01:15:50;13.40;99.90
22795;DHT22;11564;50.920;11.612;2023-06-10T01:18:15;13.40;99.90
22795;DHT22;11564;50.920;11.612;2023-06-10T01:20:42;13.40;99.90
22795;DHT22;11564;50.920;11.612;2023-06-10T01:23:12;13.40;99.90
22795;DHT22;11564;50.920;11.612;2023-06-10T01:25:40;13.40;99.90
22795;DHT22;11564;50.920;11.612;2023-06-10T01:28:22;13.30;99.90
22795;DHT22;11564;50.920;11.612;2023-06-10T01:33:26;13.30;99.90
22795;DHT22;11564;50.920;11.612;2023-06-10T01:35:53;13.30;99.90
22795;DHT22;11564;50.920;11.612;2023-06-10T01:38:20;13.20;99.90
22795;DHT22;11564;50.920;11.612;2023-06-10T01:40:47;13.20;99.90
22795;DHT22;11564;50.920;11.612;2023-06-10T01:43:13;13.20;99.90
22795;DHT22;11564;50.920;11.612;2023-06-10T01:45:39;13.30;99.90
22795;DHT22;11564;50.920;11.612;2023-06-10T01:48:05;13.20;99.90
22795;DHT22;11564;50.920;11.612;2023-06-10T01:50:31;13.20;99.90
22795;DHT22;11564;50.920;11.612;2023-06-10T01:52:58;13.10;99.90
22795;DHT22;11564;50.920;11.612;2023-06-10T01:55:23;13.10;99.90
22795;DHT22;11564;50.920;11.612;2023-06-10T01:57:49;13.10;99.90
22795;DHT22;11564;50.920;11.612;2023-06-10T02:00:15;13.10;99.90
22795;DHT22;11564;50.920;11.612;2023-06-10T02:02:41;13.10;99.90
22795;DHT22;11564;50.920;11.612;2023-06-10T02:05:07;13.10;99.90
22795;DHT22;11564;50.920;11.612;2023-06-10T02:07:32;13.10;99.90
22795;DHT22;11564;50.920;11.612;2023-06-10T02:09:58;13.10;99.90
22795;DHT22;11564;50.920;11.612;2023-06-10T02:12:24;13.00;99.90
22795;DHT22;11564;50.920;11.612;2023-06-10T02:14:50;13.00;99.90
22795;DHT22;11564;50.920;11.612;2023-06-10T02:17:16;12.90;99.90
22795;DHT22;11564;50.920;11.612;2023-06-10T02:19:41;12.90;99.90
22795;DHT22;11564;50.920;11.612;2023-06-10T02:22:08;12.90;99.90
22795;DHT22;11564;50.920;11.612;2023-06-10T02:24:36;12.80;99.90
22795;DHT22;11564;50.920;11.612;2023-06-10T02:27:04;12.80;99.90
22795;DHT22;11564;50.920;11.612;2023-06-10T02:29:33;12.80;99.90
22795;DHT22;11564;50.920;11.612;2023-06-10T02:31:58;12.70;99.90
22795;DHT22;11564;50.920;11.612;2023-06-10T02:34:24;12.70;99.90
22795;DHT22;11564;50.920;11.612;2023-06-10T02:36:50;12.70;99.90
22795;DHT22;11564;50.920;11.612;2023-06-10T02:39:16;12.60;99.90
22795;DHT22;11564;50.920;11.612;2023-06-10T02:41:42;12.60;99.90
22795;DHT22;11564;50.920;11.612;2023-06-10T02:44:07;12.70;99.90
22795;DHT22;11564;50.920;11.612;2023-06-10T02:46:33;12.70;99.90
22795;DHT22;11564;50.920;11.612;2023-06-10T02:48:59;12.70;99.90
22795;DHT22;11564;50.920;11.612;2023-06-10T02:51:24;12.60;99.90
22795;DHT22;11564;50.920;11.612;2023-06-10T02:53:50;12.50;99.90
22795;DHT22;11564;50.920;11.612;2023-06-10T02:56:17;12.60;99.90
22795;DHT22;11564;50.920;11.612;2023-06-10T02:58:42;12.50;99.90
22795;DHT22;11564;50.920;11.612;2023-06-10T03:01:08;12.50;99.90
22795;DHT22;11564;50.920;11.612;2023-06-10T03:03:35;12.50;99.90
22795;DHT22;11564;50.920;11.612;2023-06-10T03:06:02;12.40;99.90
22795;DHT22;11564;50.920;11.612;2023-06-10T03:08:29;12.40;99.90
22795;DHT22;11564;50.920;11.612;2023-06-10T03:10:55;12.40;99.90
22795;DHT22;11564;50.920;11.612;2023-06-10T03:13:21;12.40;99.90
22795;DHT22;11564;50.920;11.612;2023-06-10T03:15:47;12.40;99.90
22795;DHT22;11564;50.920;11.612;2023-06-10T03:18:12;12.40;99.90
22795;DHT22;11564;50.920;11.612;2023-06-10T03:20:38;12.40;99.90
22795;DHT22;11564;50.920;11.612;2023-06-10T03:23:05;12.40;99.90
22795;DHT22;11564;50.920;11.612;2023-06-10T03:25:32;12.40;99.90
22795;DHT22;11564;50.920;11.612;2023-06-10T03:27:57;12.40;99.90
22795;DHT22;11564;50.920;11.612;2023-06-10T03:30:23;12.40;99.90
22795;DHT22;11564;50.920;11.612;2023-06-10T03:32:48;12.50;99.90
22795;DHT22;11564;50.920;11.612;2023-06-10T03:35:14;12.60;99.90
22795;DHT22;11564;50.920;11.612;2023-06-10T03:37:40;12.70;99.90
22795;DHT22;11564;50.920;11.612;2023-06-10T03:40:07;12.80;99.90
22795;DHT22;11564;50.920;11.612;2023-06-10T03:42:34;12.90;99.90
22795;DHT22;11564;50.920;11.612;2023-06-10T03:45:00;12.90;99.90
22795;DHT22;11564;50.920;11.612;2023-06-10T03:47:26;13.10;99.90
22795;DHT22;11564;50.920;11.612;2023-06-10T03:49:51;13.10;99.90
22795;DHT22;11564;50.920;11.612;2023-06-10T03:52:18;13.20;99.90
22795;DHT22;11564;50.920;11.612;2023-06-10T03:54:44;13.20;99.90
22795;DHT22;11564;50.920;11.612;2023-06-10T03:57:10;13.20;99.90
22795;DHT22;11564;50.920;11.612;2023-06-10T03:59:35;13.30;99.90
22795;DHT22;11564;50.920;11.612;2023-06-10T04:02:01;13.30;99.90
22795;DHT22;11564;50.920;11.612;2023-06-10T04:04:27;13.30;99.90
22795;DHT22;11564;50.920;11.612;2023-06-10T04:06:52;13.30;99.90
22795;DHT22;11564;50.920;11.612;2023-06-10T04:09:18;13.30;99.90
22795;DHT22;11564;50.920;11.612;2023-06-10T04:11:44;13.30;99.90
22795;DHT22;11564;50.920;11.612;2023-06-10T04:14:09;13.30;99.90
22795;DHT22;11564;50.920;11.612;2023-06-10T04:16:35;13.30;99.90
22795;DHT22;11564;50.920;11.612;2023-06-10T04:19:01;13.30;99.90
22795;DHT22;11564;50.920;11.612;2023-06-10T04:21:27;13.40;99.90
22795;DHT22;11564;50.920;11.612;2023-06-10T04:23:53;13.40;99.90
22795;DHT22;11564;50.920;11.612;2023-06-10T04:26:18;13.40;99.90
22795;DHT22;11564;50.920;11.612;2023-06-10T04:28:44;13.50;99.90
22795;DHT22;11564;50.920;11.612;2023-06-10T04:31:10;13.60;99.90
22795;DHT22;11564;50.920;11.612;2023-06-10T04:33:36;13.70;99.90
22795;DHT22;11564;50.920;11.612;2023-06-10T04:36:01;13.70;99.90
22795;DHT22;11564;50.920;11.612;2023-06-10T04:38:28;13.70;99.90
22795;DHT22;11564;50.920;11.612;2023-06-10T04:40:53;13.80;99.90
22795;DHT22;11564;50.920;11.612;2023-06-10T04:43:19;13.80;99.90
22795;DHT22;11564;50.920;11.612;2023-06-10T04:45:45;13.90;99.90
22795;DHT22;11564;50.920;11.612;2023-06-10T04:48:11;14.00;99.90
22795;DHT22;11564;50.920;11.612;2023-06-10T04:50:37;14.00;99.90
22795;DHT22;11564;50.920;11.612;2023-06-10T04:53:02;14.00;99.90
22795;DHT22;11564;50.920;11.612;2023-06-10T04:55:28;14.00;99.90
22795;DHT22;11564;50.920;11.612;2023-06-10T04:57:55;14.10;99.90
22795;DHT22;11564;50.920;11.612;2023-06-10T05:00:20;14.10;99.90
22795;DHT22;11564;50.920;11.612;2023-06-10T05:02:46;14.20;99.90
22795;DHT22;11564;50.920;11.612;2023-06-10T05:05:18;14.20;99.90
22795;DHT22;11564;50.920;11.612;2023-06-10T05:07:44;14.40;99.90
22795;DHT22;11564;50.920;11.612;2023-06-10T05:10:10;14.50;99.90
22795;DHT22;11564;50.920;11.612;2023-06-10T05:12:40;14.60;99.90
22795;DHT22;11564;50.920;11.612;2023-06-10T05:15:07;14.70;99.90
22795;DHT22;11564;50.920;11.612;2023-06-10T05:17:33;14.80;99.90
22795;DHT22;11564;50.920;11.612;2023-06-10T05:19:58;14.80;99.90
22795;DHT22;11564;50.920;11.612;2023-06-10T05:22:24;14.80;99.90
22795;DHT22;11564;50.920;11.612;2023-06-10T05:24:50;14.80;99.90
22795;DHT22;11564;50.920;11.612;2023-06-10T05:27:16;14.90;99.90
22795;DHT22;11564;50.920;11.612;2023-06-10T05:29:42;14.90;99.90
22795;DHT22;11564;50.920;11.612;2023-06-10T05:32:08;14.90;99.90
22795;DHT22;11564;50.920;11.612;2023-06-10T05:34:34;14.90;99.90
22795;DHT22;11564;50.920;11.612;2023-06-10T05:36:59;15.00;99.90
22795;DHT22;11564;50.920;11.612;2023-06-10T05:39:25;15.00;99.90
22795;DHT22;11564;50.920;11.612;2023-06-10T05:41:50;15.10;99.90
22795;DHT22;11564;50.920;11.612;2023-06-10T05:44:16;15.20;99.90
22795;DHT22;11564;50.920;11.612;2023-06-10T05:46:42;15.30;99.90
22795;DHT22;11564;50.920;11.612;2023-06-10T05:49:07;15.40;99.90
22795;DHT22;11564;50.920;11.612;2023-06-10T05:51:33;15.40;99.90
22795;DHT22;11564;50.920;11.612;2023-06-10T05:53:58;15.40;99.90
22795;DHT22;11564;50.920;11.612;2023-06-10T05:56:24;15.50;99.90
22795;DHT22;11564;50.920;11.612;2023-06-10T05:58:51;15.50;99.90
22795;DHT22;11564;50.920;11.612;2023-06-10T06:01:17;15.60;99.90
22795;DHT22;11564;50.920;11.612;2023-06-10T06:03:42;15.60;99.90
22795;DHT22;11564;50.920;11.612;2023-06-10T06:06:08;15.60;99.90
22795;DHT22;11564;50.920;11.612;2023-06-10T06:08:33;15.60;99.90
22795;DHT22;11564;50.920;11.612;2023-06-10T06:10:59;15.60;99.90
22795;DHT22;11564;50.920;11.612;2023-06-10T06:13:25;15.60;99.90
22795;DHT22;11564;50.920;11.612;2023-06-10T06:15:50;15.80;99.90
22795;DHT22;11564;50.920;11.612;2023-06-10T06:18:16;15.80;99.90
22795;DHT22;11564;50.920;11.612;2023-06-10T06:20:42;15.80;99.90
22795;DHT22;11564;50.920;11.612;2023-06-10T06:23:07;15.80;99.90
22795;DHT22;11564;50.920;11.612;2023-06-10T06:25:36;15.80;99.90
22795;DHT22;11564;50.920;11.612;2023-06-10T06:28:06;15.90;99.90
22795;DHT22;11564;50.920;11.612;2023-06-10T06:30:32;15.90;99.90
22795;DHT22;11564;50.920;11.612;2023-06-10T06:32:57;16.00;99.90
22795;DHT22;11564;50.920;11.612;2023-06-10T06:35:23;16.00;99.90
22795;DHT22;11564;50.920;11.612;2023-06-10T06:37:48;16.00;99.90
22795;DHT22;11564;50.920;11.612;2023-06-10T06:40:14;16.10;99.90
22795;DHT22;11564;50.920;11.612;2023-06-10T06:42:40;16.20;99.90
22795;DHT22;11564;50.920;11.612;2023-06-10T06:45:06;16.30;99.90
22795;DHT22;11564;50.920;11.612;2023-06-10T06:47:32;16.40;99.90
22795;DHT22;11564;50.920;11.612;2023-06-10T06:49:57;16.60;99.90
22795;DHT22;11564;50.920;11.612;2023-06-10T06:52:23;16.70;99.90
22795;DHT22;11564;50.920;11.612;2023-06-10T06:54:49;16.90;99.90
22795;DHT22;11564;50.920;11.612;2023-06-10T06:57:14;17.00;99.90
22795;DHT22;11564;50.920;11.612;2023-06-10T06:59:40;17.10;99.90
22795;DHT22;11564;50.920;11.612;2023-06-10T07:02:06;17.10;99.90
22795;DHT22;11564;50.920;11.612;2023-06-10T07:04:31;17.30;99.90
22795;DHT22;11564;50.920;11.612;2023-06-10T07:06:57;17.40;99.90
22795;DHT22;11564;50.920;11.612;2023-06-10T07:09:23;17.40;99.90
22795;DHT22;11564;50.920;11.612;2023-06-10T07:11:48;17.40;99.90
22795;DHT22;11564;50.920;11.612;2023-06-10T07:14:14;17.50;99.90
22795;DHT22;11564;50.920;11.612;2023-06-10T07:16:39;17.60;99.90
22795;DHT22;11564;50.920;11.612;2023-06-10T07:19:05;17.70;99.90
22795;DHT22;11564;50.920;11.612;2023-06-10T07:21:31;17.70;99.90
22795;DHT22;11564;50.920;11.612;2023-06-10T07:23:58;17.70;99.90
22795;DHT22;11564;50.920;11.612;2023-06-10T07:26:23;17.90;99.90
22795;DHT22;11564;50.920;11.612;2023-06-10T07:28:51;17.90;99.90
22795;DHT22;11564;50.920;11.612;2023-06-10T07:31:16;17.70;99.90
22795;DHT22;11564;50.920;11.612;2023-06-10T07:33:42;17.80;99.90
22795;DHT22;11564;50.920;11.612;2023-06-10T07:36:09;17.90;99.90
22795;DHT22;11564;50.920;11.612;2023-06-10T07:38:35;18.10;99.90
22795;DHT22;11564;50.920;11.612;2023-06-10T07:41:01;18.10;99.90
22795;DHT22;11564;50.920;11.612;2023-06-10T07:43:26;18.10;99.90
22795;DHT22;11564;50.920;11.612;2023-06-10T07:45:52;18.30;99.90
22795;DHT22;11564;50.920;11.612;2023-06-10T07:48:18;18.30;99.90
22795;DHT22;11564;50.920;11.612;2023-06-10T07:50:44;18.50;99.90
22795;DHT22;11564;50.920;11.612;2023-06-10T07:53:10;18.60;99.90
22795;DHT22;11564;50.920;11.612;2023-06-10T07:55:35;18.80;99.90
22795;DHT22;11564;50.920;11.612;2023-06-10T07:58:01;18.80;99.90
22795;DHT22;11564;50.920;11.612;2023-06-10T08:00:27;19.00;99.90
22795;DHT22;11564;50.920;11.612;2023-06-10T08:02:52;19.20;99.90
22795;DHT22;11564;50.920;11.612;2023-06-10T08:05:18;19.20;99.90
22795;DHT22;11564;50.920;11.612;2023-06-10T08:07:44;19.40;99.90
22795;DHT22;11564;50.920;11.612;2023-06-10T08:10:10;19.40;99.90
22795;DHT22;11564;50.920;11.612;2023-06-10T08:12:36;19.50;99.90
22795;DHT22;11564;50.920;11.612;2023-06-10T08:15:02;19.70;99.90
22795;DHT22;11564;50.920;11.612;2023-06-10T08:17:30;20.10;99.90
22795;DHT22;11564;50.920;11.612;2023-06-10T08:19:55;20.10;99.90
22795;DHT22;11564;50.920;11.612;2023-06-10T08:22:21;20.10;99.90
22795;DHT22;11564;50.920;11.612;2023-06-10T08:24:47;20.10;99.90
22795;DHT22;11564;50.920;11.612;2023-06-10T08:27:12;20.10;99.90
22795;DHT22;11564;50.920;11.612;2023-06-10T08:29:39;20.10;99.90
22795;DHT22;11564;50.920;11.612;2023-06-10T08:32:06;20.10;99.90
22795;DHT22;11564;50.920;11.612;2023-06-10T08:34:34;20.30;99.90
22795;DHT22;11564;50.920;11.612;2023-06-10T08:37:01;20.60;99.90
22795;DHT22;11564;50.920;11.612;2023-06-10T08:39:27;20.80;99.90
22795;DHT22;11564;50.920;11.612;2023-06-10T08:42:11;21.10;99.90
22795;DHT22;11564;50.920;11.612;2023-06-10T08:44:40;21.30;99.90
22795;DHT22;11564;50.920;11.612;2023-06-10T08:47:14;21.40;99.90
22795;DHT22;11564;50.920;11.612;2023-06-10T08:49:45;21.10;99.90
22795;DHT22;11564;50.920;11.612;2023-06-10T08:52:17;21.20;99.90
22795;DHT22;11564;50.920;11.612;2023-06-10T08:55:10;21.30;99.90
22795;DHT22;11564;50.920;11.612;2023-06-10T08:57:35;21.60;99.90
22795;DHT22;11564;50.920;11.612;2023-06-10T09:00:02;21.50;99.90
22795;DHT22;11564;50.920;11.612;2023-06-10T09:02:28;21.70;99.90
22795;DHT22;11564;50.920;11.612;2023-06-10T09:04:56;21.90;99.90
22795;DHT22;11564;50.920;11.612;2023-06-10T09:07:22;22.00;99.90
22795;DHT22;11564;50.920;11.612;2023-06-10T09:09:49;22.10;99.90
22795;DHT22;11564;50.920;11.612;2023-06-10T09:12:15;22.40;99.90
22795;DHT22;11564;50.920;11.612;2023-06-10T09:14:42;22.70;99.90
22795;DHT22;11564;50.920;11.612;2023-06-10T09:17:08;22.90;99.90
22795;DHT22;11564;50.920;11.612;2023-06-10T09:19:35;22.90;99.90
22795;DHT22;11564;50.920;11.612;2023-06-10T09:22:01;23.00;99.90
22795;DHT22;11564;50.920;11.612;2023-06-10T09:24:27;23.30;99.90
22795;DHT22;11564;50.920;11.612;2023-06-10T09:27:04;23.40;99.90
22795;DHT22;11564;50.920;11.612;2023-06-10T09:29:32;23.70;99.90
22795;DHT22;11564;50.920;11.612;2023-06-10T09:31:57;23.70;99.90
22795;DHT22;11564;50.920;11.612;2023-06-10T09:34:25;23.80;99.90
22795;DHT22;11564;50.920;11.612;2023-06-10T09:36:51;23.80;99.90
22795;DHT22;11564;50.920;11.612;2023-06-10T09:39:18;23.80;99.90
22795;DHT22;11564;50.920;11.612;2023-06-10T09:41:45;24.10;99.90
22795;DHT22;11564;50.920;11.612;2023-06-10T09:44:19;24.20;99.90
22795;DHT22;11564;50.920;11.612;2023-06-10T09:46:48;24.40;99.90
22795;DHT22;11564;50.920;11.612;2023-06-10T09:49:18;24.60;99.90
22795;DHT22;11564;50.920;11.612;2023-06-10T09:51:54;24.60;99.90
22795;DHT22;11564;50.920;11.612;2023-06-10T09:54:21;24.70;99.90
22795;DHT22;11564;50.920;11.612;2023-06-10T09:56:48;24.60;99.90
22795;DHT22;11564;50.920;11.612;2023-06-10T09:59:14;24.70;99.90
22795;DHT22;11564;50.920;11.612;2023-06-10T10:01:40;24.90;99.90
22795;DHT22;11564;50.920;11.612;2023-06-10T10:04:06;25.00;99.90
22795;DHT22;11564;50.920;11.612;2023-06-10T10:06:31;25.00;99.70
22795;DHT22;11564;50.920;11.612;2023-06-10T10:08:57;25.10;99.60
22795;DHT22;11564;50.920;11.612;2023-06-10T10:11:23;25.20;99.40
22795;DHT22;11564;50.920;11.612;2023-06-10T10:13:52;25.20;98.90
22795;DHT22;11564;50.920;11.612;2023-06-10T10:16:24;25.30;98.60
22795;DHT22;11564;50.920;11.612;2023-06-10T10:18:55;25.30;98.00
22795;DHT22;11564;50.920;11.612;2023-06-10T10:21:26;25.30;97.70
22795;DHT22;11564;50.920;11.612;2023-06-10T10:26:21;25.60;98.30
22795;DHT22;11564;50.920;11.612;2023-06-10T10:28:56;25.60;96.80
22795;DHT22;11564;50.920;11.612;2023-06-10T10:31:24;25.90;97.40
22795;DHT22;11564;50.920;11.612;2023-06-10T10:33:55;26.10;97.00
22795;DHT22;11564;50.920;11.612;2023-06-10T10:36:23;26.40;95.60
22795;DHT22;11564;50.920;11.612;2023-06-10T10:38:49;26.20;95.90
22795;DHT22;11564;50.920;11.612;2023-06-10T10:41:15;26.30;96.00
22795;DHT22;11564;50.920;11.612;2023-06-10T10:43:43;26.50;95.40
22795;DHT22;11564;50.920;11.612;2023-06-10T10:46:17;26.70;94.70
22795;DHT22;11564;50.920;11.612;2023-06-10T10:48:43;26.90;94.50
22795;DHT22;11564;50.920;11.612;2023-06-10T10:51:10;26.90;94.90
22795;DHT22;11564;50.920;11.612;2023-06-10T10:53:39;26.90;93.90
22795;DHT22;11564;50.920;11.612;2023-06-10T10:58:38;27.20;94.00
22795;DHT22;11564;50.920;11.612;2023-06-10T11:01:23;27.20;93.30
22795;DHT22;11564;50.920;11.612;2023-06-10T11:03:49;27.40;92.90
22795;DHT22;11564;50.920;11.612;2023-06-10T11:06:15;27.60;92.50
22795;DHT22;11564;50.920;11.612;2023-06-10T11:11:27;27.30;92.30
22795;DHT22;11564;50.920;11.612;2023-06-10T11:16:43;27.50;91.70
22795;DHT22;11564;50.920;11.612;2023-06-10T11:19:09;27.60;91.90
22795;DHT22;11564;50.920;11.612;2023-06-10T11:21:57;28.00;91.00
22795;DHT22;11564;50.920;11.612;2023-06-10T11:24:25;28.20;90.20
22795;DHT22;11564;50.920;11.612;2023-06-10T11:26:51;28.10;90.30
22795;DHT22;11564;50.920;11.612;2023-06-10T11:29:17;28.30;90.30
22795;DHT22;11564;50.920;11.612;2023-06-10T11:31:49;28.30;90.30
22795;DHT22;11564;50.920;11.612;2023-06-10T11:34:21;28.80;90.00
22795;DHT22;11564;50.920;11.612;2023-06-10T11:36:49;29.20;89.50
22795;DHT22;11564;50.920;11.612;2023-06-10T11:39:14;29.60;88.90
22795;DHT22;11564;50.920;11.612;2023-06-10T11:41:41;29.70;86.80
22795;DHT22;11564;50.920;11.612;2023-06-10T11:44:13;30.10;86.10
22795;DHT22;11564;50.920;11.612;2023-06-10T11:46:40;30.10;82.80
22795;DHT22;11564;50.920;11.612;2023-06-10T11:49:08;30.20;83.20
22795;DHT22;11564;50.920;11.612;2023-06-10T11:51:40;30.20;82.00
22795;DHT22;11564;50.920;11.612;2023-06-10T11:54:10;30.20;81.40
22795;DHT22;11564;50.920;11.612;2023-06-10T11:56:36;29.90;82.20
22795;DHT22;11564;50.920;11.612;2023-06-10T11:59:06;29.70;82.80
22795;DHT22;11564;50.920;11.612;2023-06-10T12:01:42;29.50;83.00
22795;DHT22;11564;50.920;11.612;2023-06-10T12:04:15;29.50;83.10
22795;DHT22;11564;50.920;11.612;2023-06-10T12:06:59;29.30;83.40
22795;DHT22;11564;50.920;11.612;2023-06-10T12:09:29;29.10;81.80
22795;DHT22;11564;50.920;11.612;2023-06-10T12:11:57;29.00;83.40
22795;DHT22;11564;50.920;11.612;2023-06-10T12:14:49;29.20;82.70
22795;DHT22;11564;50.920;11.612;2023-06-10T12:17:15;29.50;82.00
22795;DHT22;11564;50.920;11.612;2023-06-10T12:19:41;29.60;81.00
22795;DHT22;11564;50.920;11.612;2023-06-10T12:22:06;29.80;80.60
22795;DHT22;11564;50.920;11.612;2023-06-10T12:24:32;30.00;78.80
22795;DHT22;11564;50.920;11.612;2023-06-10T12:26:58;30.00;79.20
22795;DHT22;11564;50.920;11.612;2023-06-10T12:29:24;29.90;78.20
22795;DHT22;11564;50.920;11.612;2023-06-10T12:32:02;29.90;78.20
22795;DHT22;11564;50.920;11.612;2023-06-10T12:34:38;29.80;78.80
22795;DHT22;11564;50.920;11.612;2023-06-10T12:37:05;29.60;77.20
22795;DHT22;11564;50.920;11.612;2023-06-10T12:39:32;29.80;75.40
22795;DHT22;11564;50.920;11.612;2023-06-10T12:41:59;29.90;74.50
22795;DHT22;11564;50.920;11.612;2023-06-10T12:44:35;30.30;74.40
22795;DHT22;11564;50.920;11.612;2023-06-10T12:47:12;30.70;72.40
22795;DHT22;11564;50.920;11.612;2023-06-10T12:49:39;31.30;71.30
22795;DHT22;11564;50.920;11.612;2023-06-10T12:52:05;31.50;69.80
22795;DHT22;11564;50.920;11.612;2023-06-10T12:54:31;31.70;69.30
22795;DHT22;11564;50.920;11.612;2023-06-10T12:56:57;32.00;68.80
22795;DHT22;11564;50.920;11.612;2023-06-10T12:59:23;31.90;67.60
22795;DHT22;11564;50.920;11.612;2023-06-10T13:01:52;32.00;64.60
22795;DHT22;11564;50.920;11.612;2023-06-10T13:04:18;32.20;64.40
22795;DHT22;11564;50.920;11.612;2023-06-10T13:06:45;32.20;64.70
22795;DHT22;11564;50.920;11.612;2023-06-10T13:09:15;32.20;64.40
22795;DHT22;11564;50.920;11.612;2023-06-10T13:11:41;32.40;64.30
22795;DHT22;11564;50.920;11.612;2023-06-10T13:14:08;32.90;64.00
22795;DHT22;11564;50.920;11.612;2023-06-10T13:16:34;33.70;61.50
22795;DHT22;11564;50.920;11.612;2023-06-10T13:18:59;33.80;60.00
22795;DHT22;11564;50.920;11.612;2023-06-10T13:21:28;35.80;57.20
22795;DHT22;11564;50.920;11.612;2023-06-10T13:23:53;38.20;54.40
22795;DHT22;11564;50.920;11.612;2023-06-10T13:26:19;40.30;49.70
22795;DHT22;11564;50.920;11.612;2023-06-10T13:28:44;41.90;47.80
22795;DHT22;11564;50.920;11.612;2023-06-10T13:31:10;43.80;44.80
22795;DHT22;11564;50.920;11.612;2023-06-10T13:33:36;44.80;42.50
22795;DHT22;11564;50.920;11.612;2023-06-10T13:36:01;45.90;40.10
22795;DHT22;11564;50.920;11.612;2023-06-10T13:38:27;47.00;39.40
22795;DHT22;11564;50.920;11.612;2023-06-10T13:40:53;48.50;37.50
22795;DHT22;11564;50.920;11.612;2023-06-10T13:43:18;49.70;35.20
22795;DHT22;11564;50.920;11.612;2023-06-10T13:45:44;49.40;34.40
22795;DHT22;11564;50.920;11.612;2023-06-10T13:48:10;50.70;33.80
22795;DHT22;11564;50.920;11.612;2023-06-10T13:50:37;51.00;33.80
22795;DHT22;11564;50.920;11.612;2023-06-10T13:53:03;51.20;33.40
22795;DHT22;11564;50.920;11.612;2023-06-10T13:55:28;50.50;32.20
22795;DHT22;11564;50.920;11.612;2023-06-10T13:57:54;49.10;33.40
22795;DHT22;11564;50.920;11.612;2023-06-10T14:00:19;49.30;33.20
22795;DHT22;11564;50.920;11.612;2023-06-10T14:02:45;49.20;33.50
22795;DHT22;11564;50.920;11.612;2023-06-10T14:05:11;48.90;33.40
22795;DHT22;11564;50.920;11.612;2023-06-10T14:07:37;47.70;34.30
22795;DHT22;11564;50.920;11.612;2023-06-10T14:10:03;48.50;33.30
22795;DHT22;11564;50.920;11.612;2023-06-10T14:12:29;50.40;32.50
22795;DHT22;11564;50.920;11.612;2023-06-10T14:14:55;51.70;31.70
22795;DHT22;11564;50.920;11.612;2023-06-10T14:17:20;51.00;31.00
22795;DHT22;11564;50.920;11.612;2023-06-10T14:19:47;47.70;32.70
22795;DHT22;11564;50.920;11.612;2023-06-10T14:22:13;47.20;34.20
22795;DHT22;11564;50.920;11.612;2023-06-10T14:24:39;47.20;33.90
22795;DHT22;11564;50.920;11.612;2023-06-10T14:27:04;48.90;33.60
22795;DHT22;11564;50.920;11.612;2023-06-10T14:29:30;50.40;32.10
22795;DHT22;11564;50.920;11.612;2023-06-10T14:31:57;50.80;31.70
22795;DHT22;11564;50.920;11.612;2023-06-10T14:34:22;51.30;31.30
22795;DHT22;11564;50.920;11.612;2023-06-10T14:36:54;50.60;31.60
22795;DHT22;11564;50.920;11.612;2023-06-10T14:39:19;49.30;33.00
22795;DHT22;11564;50.920;11.612;2023-06-10T14:41:45;48.70;32.50
22795;DHT22;11564;50.920;11.612;2023-06-10T14:44:11;47.30;33.40
22795;DHT22;11564;50.920;11.612;2023-06-10T14:46:36;46.20;34.00
22795;DHT22;11564;50.920;11.612;2023-06-10T14:49:02;43.60;35.80
22795;DHT22;11564;50.920;11.612;2023-06-10T14:51:28;42.50;37.10
22795;DHT22;11564;50.920;11.612;2023-06-10T14:53:53;40.20;39.20
22795;DHT22;11564;50.920;11.612;2023-06-10T14:56:19;38.10;40.60
22795;DHT22;11564;50.920;11.612;2023-06-10T14:58:45;36.90;43.10
22795;DHT22;11564;50.920;11.612;2023-06-10T15:01:10;35.90;43.70
22795;DHT22;11564;50.920;11.612;2023-06-10T15:03:36;37.80;43.10
22795;DHT22;11564;50.920;11.612;2023-06-10T15:06:01;40.80;40.60
22795;DHT22;11564;50.920;11.612;2023-06-10T15:08:27;43.30;38.20
22795;DHT22;11564;50.920;11.612;2023-06-10T15:10:55;45.30;36.00
22795;DHT22;11564;50.920;11.612;2023-06-10T15:13:22;46.30;35.50
22795;DHT22;11564;50.920;11.612;2023-06-10T15:15:48;48.30;34.30
22795;DHT22;11564;50.920;11.612;2023-06-10T15:18:14;49.60;34.20
22795;DHT22;11564;50.920;11.612;2023-06-10T15:20:39;50.00;32.90
22795;DHT22;11564;50.920;11.612;2023-06-10T15:23:05;50.80;32.40
22795;DHT22;11564;50.920;11.612;2023-06-10T15:25:33;50.70;33.20
22795;DHT22;11564;50.920;11.612;2023-06-10T15:27:58;50.90;32.10